Time;durP1;ratioP1;P1;durP2;ratioP2;P2;SDS_P1;SDS_P2;PMS_P1;PMS_P2;Temp;Humidity;BMP_temperature;BMP_pressure;BME280_temperature;BME280_humidity;BME280_pressure;Samples;Min_cycle;Max_cycle;Signal;HPM_P1;HPM_P2
2021/01/05 00:01:20;;;;;;;14.40;10.27;;;1.90;99.90;;;;;;5034765;28;20368;-87
2021/01/05 00:03:48;;;;;;;19.05;10.43;;;1.80;99.90;;;;;;5034587;28;20661;-89
2021/01/05 00:06:14;;;;;;;17.67;8.73;;;1.80;99.90;;;;;;5033589;28;20246;-87
2021/01/05 00:08:40;;;;;;;24.00;10.10;;;1.90;99.90;;;;;;5033989;28;20209;-89
2021/01/05 00:11:07;;;;;;;16.83;10.32;;;1.90;99.90;;;;;;5033860;28;20286;-89
2021/01/05 00:13:33;;;;;;;15.82;9.98;;;1.80;99.90;;;;;;5033380;28;20309;-86
2021/01/05 00:16:00;;;;;;;22.08;11.45;;;1.80;99.90;;;;;;5033126;28;20315;-88
2021/01/05 00:18:26;;;;;;;18.55;9.25;;;1.80;99.90;;;;;;5032473;28;20343;-89
2021/01/05 00:20:54;;;;;;;12.63;9.13;;;1.80;99.90;;;;;;5032009;28;20294;-89
2021/01/05 00:23:20;;;;;;;16.58;9.68;;;1.80;99.90;;;;;;5034925;28;20213;-89
2021/01/05 00:25:47;;;;;;;20.50;10.50;;;1.80;99.90;;;;;;5035671;28;20243;-88
2021/01/05 00:28:13;;;;;;;19.63;11.68;;;1.90;99.90;;;;;;5033955;28;20308;-88
2021/01/05 00:30:40;;;;;;;17.55;11.30;;;1.80;99.90;;;;;;5034246;28;20567;-88
2021/01/05 00:33:07;;;;;;;14.27;9.95;;;1.90;99.90;;;;;;5034272;28;20680;-85
2021/01/05 00:35:35;;;;;;;17.20;10.95;;;1.90;99.90;;;;;;5034605;28;20317;-88
2021/01/05 00:38:04;;;;;;;23.27;11.75;;;1.90;99.90;;;;;;5034995;28;20669;-86
2021/01/05 00:40:31;;;;;;;22.30;10.20;;;1.90;99.90;;;;;;5034357;28;20207;-87
2021/01/05 00:42:58;;;;;;;16.20;9.95;;;1.80;99.90;;;;;;5032514;28;20207;-86
2021/01/05 00:45:28;;;;;;;18.17;10.27;;;1.80;99.90;;;;;;5033572;28;20622;-88
2021/01/05 00:47:54;;;;;;;18.55;10.38;;;1.80;99.90;;;;;;5033671;28;20298;-89
2021/01/05 00:50:21;;;;;;;23.25;11.88;;;1.80;99.90;;;;;;5031539;28;20213;-85
2021/01/05 00:52:51;;;;;;;21.20;10.70;;;1.80;99.90;;;;;;5034399;28;20236;-86
2021/01/05 00:55:19;;;;;;;14.68;9.40;;;1.80;99.90;;;;;;5043871;28;20257;-88
2021/01/05 00:57:45;;;;;;;17.13;10.65;;;1.80;99.90;;;;;;5054707;28;20186;-87
2021/01/05 01:00:15;;;;;;;14.55;10.48;;;1.90;99.90;;;;;;5057262;28;20214;-91
2021/01/05 01:02:44;;;;;;;19.15;9.90;;;1.90;99.90;;;;;;5056153;28;20187;-87
2021/01/05 01:05:13;;;;;;;21.63;11.45;;;1.90;99.90;;;;;;5045627;28;20601;-87
2021/01/05 01:07:40;;;;;;;22.33;9.70;;;1.90;99.90;;;;;;5041316;28;20192;-87
2021/01/05 01:10:07;;;;;;;20.20;11.45;;;1.90;99.90;;;;;;5036687;28;20207;-88
2021/01/05 01:12:34;;;;;;;17.45;11.48;;;1.90;99.90;;;;;;5033418;28;20242;-87
2021/01/05 01:15:01;;;;;;;25.05;12.35;;;1.90;99.90;;;;;;5033223;28;20242;-90
2021/01/05 01:17:27;;;;;;;15.45;9.77;;;1.80;99.90;;;;;;5032977;28;20234;-92
2021/01/05 01:19:54;;;;;;;16.58;10.57;;;1.90;99.90;;;;;;5030819;28;20211;-87
2021/01/05 01:22:22;;;;;;;20.50;11.70;;;1.90;99.90;;;;;;5033108;28;20261;-88
2021/01/05 01:24:49;;;;;;;15.05;10.27;;;2.00;99.90;;;;;;5032652;28;20202;-88
2021/01/05 01:27:15;;;;;;;22.65;10.80;;;2.00;99.90;;;;;;5033155;28;20677;-87
2021/01/05 01:29:46;;;;;;;19.55;10.52;;;2.00;99.90;;;;;;5032263;28;20241;-89
2021/01/05 01:32:12;;;;;;;19.55;9.52;;;1.90;99.90;;;;;;5036595;28;20348;-89
2021/01/05 01:34:38;;;;;;;13.95;9.10;;;2.00;99.90;;;;;;5037034;28;20295;-90
2021/01/05 01:37:07;;;;;;;18.05;11.27;;;2.00;99.90;;;;;;5036653;28;20240;-89
2021/01/05 01:39:34;;;;;;;16.45;11.10;;;1.80;99.90;;;;;;5036143;28;20217;-86
2021/01/05 01:42:06;;;;;;;17.05;9.27;;;1.90;99.90;;;;;;5036475;28;20293;-88
2021/01/05 01:44:35;;;;;;;16.10;9.80;;;1.90;99.90;;;;;;5034794;28;20738;-88
2021/01/05 01:47:09;;;;;;;22.05;12.18;;;1.90;99.90;;;;;;5036336;28;20215;-91
2021/01/05 01:49:36;;;;;;;21.70;10.90;;;1.90;99.90;;;;;;5036622;28;20259;-91
2021/01/05 01:52:05;;;;;;;19.33;10.35;;;2.00;99.90;;;;;;5036483;28;20290;-89
2021/01/05 01:55:03;;;;;;;15.32;9.98;;;1.90;99.90;;;;;;5036186;28;20366;-91
2021/01/05 01:57:45;;;;;;;16.73;11.18;;;2.00;99.90;;;;;;5036866;28;20630;-90
2021/01/05 02:00:53;;;;;;;21.20;10.50;;;2.00;99.90;;;;;;5037371;28;20325;-91
2021/01/05 02:03:55;;;;;;;21.02;10.48;;;2.20;99.90;;;;;;5031023;28;20210;-89
2021/01/05 02:06:33;;;;;;;19.48;11.50;;;2.10;99.90;;;;;;5036282;28;20293;-85
2021/01/05 02:09:36;;;;;;;21.00;11.57;;;2.10;99.90;;;;;;5035503;28;20296;-89
2021/01/05 02:12:13;;;;;;;23.27;11.52;;;2.00;99.90;;;;;;5029514;28;20658;-91
2021/01/05 02:15:02;;;;;;;22.13;11.98;;;2.10;99.90;;;;;;5035451;28;20242;-86
2021/01/05 02:18:02;;;;;;;25.25;13.07;;;2.00;99.90;;;;;;5035837;28;20286;-88
2021/01/05 02:20:33;;;;;;;16.95;9.75;;;2.00;99.90;;;;;;5035461;28;20294;-85
2021/01/05 02:23:25;;;;;;;19.90;11.52;;;2.10;99.90;;;;;;5035697;28;20249;-86
2021/01/05 02:26:06;;;;;;;18.63;10.00;;;2.10;99.90;;;;;;5035392;28;20309;-88
2021/01/05 02:28:40;;;;;;;15.77;9.80;;;2.10;99.90;;;;;;5034422;28;20334;-87
2021/01/05 02:31:20;;;;;;;24.60;11.90;;;2.10;99.90;;;;;;5035351;28;20297;-87
2021/01/05 02:33:54;;;;;;;16.75;9.27;;;2.00;99.90;;;;;;5035096;28;20297;-88
2021/01/05 02:36:51;;;;;;;17.38;11.15;;;2.00;99.90;;;;;;5035271;28;20234;-88
2021/01/05 02:39:32;;;;;;;19.45;12.77;;;2.00;99.90;;;;;;5035041;28;20237;-86
2021/01/05 02:42:18;;;;;;;21.48;10.27;;;2.10;99.90;;;;;;5034383;28;20631;-89
2021/01/05 02:44:52;;;;;;;25.42;12.30;;;2.10;99.90;;;;;;5034984;28;20352;-88
2021/01/05 02:47:51;;;;;;;23.77;12.30;;;1.90;99.90;;;;;;5035204;28;20297;-87
2021/01/05 02:50:37;;;;;;;22.55;11.73;;;1.90;99.90;;;;;;5021337;28;20206;-87
2021/01/05 02:53:30;;;;;;;22.65;11.95;;;1.90;99.90;;;;;;5034978;28;20211;-88
2021/01/05 02:56:34;;;;;;;19.83;11.63;;;1.90;99.90;;;;;;5034815;28;20229;-88
2021/01/05 02:59:33;;;;;;;18.83;10.77;;;2.00;99.90;;;;;;5033867;28;20242;-88
2021/01/05 03:02:43;;;;;;;22.27;12.43;;;2.00;99.90;;;;;;5035461;28;20239;-90
2021/01/05 03:05:10;;;;;;;25.13;12.77;;;2.00;99.90;;;;;;5035271;28;20347;-90
2021/01/05 03:07:37;;;;;;;27.23;14.40;;;2.20;99.90;;;;;;5035453;28;20233;-89
2021/01/05 03:10:30;;;;;;;23.92;14.52;;;2.20;99.90;;;;;;5034886;28;20311;-88
2021/01/05 03:13:08;;;;;;;26.75;15.18;;;2.30;99.90;;;;;;5031365;28;20330;-89
2021/01/05 03:15:47;;;;;;;20.15;13.02;;;2.30;99.90;;;;;;5034941;28;20671;-91
2021/01/05 03:18:23;;;;;;;26.13;14.45;;;2.30;99.90;;;;;;5034679;28;20297;-89
2021/01/05 03:20:57;;;;;;;21.75;14.23;;;2.30;99.90;;;;;;5034462;28;20203;-92
2021/01/05 03:23:25;;;;;;;27.10;14.35;;;2.40;99.90;;;;;;5034440;28;20237;-90
2021/01/05 03:25:53;;;;;;;26.33;12.88;;;2.30;99.90;;;;;;5034477;28;20713;-90
2021/01/05 03:28:23;;;;;;;27.73;15.52;;;2.20;99.90;;;;;;5033424;28;20209;-90
2021/01/05 03:30:54;;;;;;;26.48;14.07;;;2.20;99.90;;;;;;5035100;28;20298;-91
2021/01/05 03:33:20;;;;;;;26.10;15.27;;;2.20;99.90;;;;;;5034910;28;20292;-90
2021/01/05 03:35:47;;;;;;;28.30;15.23;;;2.20;99.90;;;;;;5034933;28;20223;-91
2021/01/05 03:38:13;;;;;;;29.83;15.55;;;2.30;99.90;;;;;;5033193;28;20305;-91
2021/01/05 03:40:40;;;;;;;26.00;13.90;;;2.30;99.90;;;;;;5014536;28;20207;-90
2021/01/05 03:43:06;;;;;;;28.40;13.68;;;2.30;99.90;;;;;;5013826;28;20240;-92
2021/01/05 03:45:33;;;;;;;26.63;14.15;;;2.30;99.90;;;;;;5014776;28;20287;-90
2021/01/05 03:48:00;;;;;;;30.65;14.30;;;2.40;99.90;;;;;;5014755;28;20616;-93
2021/01/05 03:50:27;;;;;;;23.40;11.48;;;2.20;99.90;;;;;;5014882;28;20298;-91
2021/01/05 03:52:53;;;;;;;24.60;14.07;;;2.10;99.90;;;;;;5014575;28;20290;-91
2021/01/05 03:55:20;;;;;;;21.38;12.35;;;2.10;99.90;;;;;;5015629;28;20613;-89
2021/01/05 03:57:47;;;;;;;23.40;14.35;;;2.20;99.90;;;;;;5013888;28;20286;-91
2021/01/05 04:00:18;;;;;;;22.30;13.57;;;2.10;99.90;;;;;;5014267;28;20322;-90
2021/01/05 04:02:45;;;;;;;17.85;11.45;;;2.00;99.90;;;;;;5014898;28;20233;-91
2021/01/05 04:05:14;;;;;;;21.38;11.88;;;2.00;99.90;;;;;;5014963;28;20207;-92
2021/01/05 04:07:41;;;;;;;24.77;12.80;;;1.90;99.90;;;;;;5016596;28;20645;-90
2021/01/05 04:10:09;;;;;;;19.10;11.02;;;1.90;99.90;;;;;;5015287;28;20300;-91
2021/01/05 04:12:36;;;;;;;21.00;11.30;;;2.00;99.90;;;;;;5015179;28;20211;-92
2021/01/05 04:15:03;;;;;;;24.33;13.27;;;2.00;99.90;;;;;;5014486;28;20213;-92
2021/01/05 04:17:29;;;;;;;21.35;10.43;;;2.00;99.90;;;;;;4996920;28;20321;-91
2021/01/05 04:19:56;;;;;;;26.17;13.00;;;1.90;99.90;;;;;;5015787;28;20286;-91
2021/01/05 04:22:23;;;;;;;21.48;11.05;;;1.80;99.90;;;;;;4966084;28;20291;-89
2021/01/05 04:24:50;;;;;;;20.80;12.25;;;1.90;99.90;;;;;;5024030;28;20183;-92
2021/01/05 04:27:16;;;;;;;19.80;10.90;;;1.90;99.90;;;;;;5036626;28;20211;-90
2021/01/05 04:29:42;;;;;;;27.05;11.98;;;1.90;99.90;;;;;;5035487;28;20195;-91
2021/01/05 04:32:10;;;;;;;21.23;11.25;;;1.90;99.90;;;;;;5029675;28;20235;-89
2021/01/05 04:34:36;;;;;;;18.70;12.18;;;2.00;99.90;;;;;;5015952;28;20282;-91
2021/01/05 04:37:03;;;;;;;33.08;12.82;;;2.10;99.90;;;;;;5015131;28;20258;-91
2021/01/05 04:39:30;;;;;;;26.02;12.95;;;2.10;99.90;;;;;;5015222;28;20207;-91
2021/01/05 04:42:05;;;;;;;20.48;11.55;;;2.10;99.90;;;;;;5014849;28;20283;-89
2021/01/05 04:44:41;;;;;;;22.85;13.45;;;2.00;99.90;;;;;;5016034;28;20628;-91
2021/01/05 04:47:20;;;;;;;23.25;12.77;;;1.90;99.90;;;;;;5015149;28;20662;-92
2021/01/05 04:50:08;;;;;;;18.92;12.73;;;1.90;99.90;;;;;;5015111;28;20246;-91
2021/01/05 04:52:42;;;;;;;23.58;13.95;;;1.80;99.90;;;;;;5014800;28;20669;-91
2021/01/05 04:55:24;;;;;;;24.35;11.75;;;1.80;99.90;;;;;;5015146;28;20257;-91
2021/01/05 04:58:02;;;;;;;18.80;10.93;;;1.90;99.90;;;;;;5013115;28;20298;-88
2021/01/05 05:00:29;;;;;;;19.92;12.35;;;1.90;99.90;;;;;;5014049;28;20275;-90
2021/01/05 05:03:04;;;;;;;20.88;13.63;;;2.00;99.90;;;;;;5014824;28;20267;-89
2021/01/05 05:05:52;;;;;;;20.50;14.23;;;2.10;99.90;;;;;;5015160;28;20345;-90
2021/01/05 05:08:29;;;;;;;21.80;12.52;;;2.00;99.90;;;;;;5017751;28;20286;-87
2021/01/05 05:11:02;;;;;;;22.55;12.55;;;2.00;99.90;;;;;;5036878;28;20725;-90
2021/01/05 05:13:38;;;;;;;25.40;13.05;;;2.00;99.90;;;;;;5036430;28;20733;-89
2021/01/05 05:16:20;;;;;;;21.92;12.32;;;2.00;99.90;;;;;;5039954;28;20329;-87
2021/01/05 05:19:02;;;;;;;25.05;12.60;;;2.00;99.90;;;;;;5034618;28;20199;-91
2021/01/05 05:21:39;;;;;;;23.27;13.20;;;1.90;99.90;;;;;;5037187;28;20301;-89
2021/01/05 05:24:14;;;;;;;23.15;13.02;;;2.00;99.90;;;;;;5036885;28;20240;-90
2021/01/05 05:26:49;;;;;;;24.20;12.73;;;2.10;99.90;;;;;;5036526;28;20199;-89
2021/01/05 05:29:30;;;;;;;22.38;12.88;;;2.00;99.90;;;;;;5036013;28;20207;-89
2021/01/05 05:32:00;;;;;;;24.15;13.00;;;2.10;99.90;;;;;;5037018;28;20226;-86
2021/01/05 05:34:30;;;;;;;21.10;13.27;;;2.10;99.90;;;;;;5037642;28;20296;-89
2021/01/05 05:37:12;;;;;;;24.48;14.05;;;2.00;99.90;;;;;;5036788;28;20658;-92
2021/01/05 05:40:05;;;;;;;23.00;11.73;;;1.90;99.90;;;;;;5025723;28;20662;-90
2021/01/05 05:42:53;;;;;;;30.88;12.95;;;1.90;99.90;;;;;;5016880;28;20290;-91
2021/01/05 05:45:25;;;;;;;24.88;11.70;;;2.00;99.90;;;;;;5004256;28;20282;-89
2021/01/05 05:48:04;;;;;;;21.33;14.18;;;2.10;99.90;;;;;;5016931;28;20208;-89
2021/01/05 05:50:38;;;;;;;22.23;12.20;;;2.20;99.90;;;;;;5016535;28;20306;-91
2021/01/05 05:53:18;;;;;;;20.90;12.00;;;2.20;99.90;;;;;;5017251;28;20195;-91
2021/01/05 05:55:47;;;;;;;18.33;12.32;;;2.10;99.90;;;;;;5017096;28;20317;-92
2021/01/05 05:58:17;;;;;;;25.20;11.73;;;2.00;99.90;;;;;;5016461;28;20714;-90
2021/01/05 06:00:47;;;;;;;22.33;11.25;;;2.00;99.90;;;;;;5018290;28;20326;-89
2021/01/05 06:03:17;;;;;;;25.20;13.02;;;2.00;99.90;;;;;;5017618;28;20290;-92
2021/01/05 06:05:43;;;;;;;24.15;13.60;;;2.00;99.90;;;;;;5017579;28;20218;-91
2021/01/05 06:08:13;;;;;;;22.00;13.20;;;2.00;99.90;;;;;;5017309;28;20260;-92
2021/01/05 06:10:39;;;;;;;18.95;11.45;;;2.00;99.90;;;;;;5036997;28;20249;-92
2021/01/05 06:13:06;;;;;;;24.90;14.50;;;2.10;99.90;;;;;;5036450;28;20298;-93
2021/01/05 06:15:34;;;;;;;23.40;13.73;;;2.10;99.90;;;;;;5037597;28;20231;-90
2021/01/05 06:18:01;;;;;;;19.55;10.55;;;2.30;99.90;;;;;;5037167;28;20199;-91
2021/01/05 06:20:28;;;;;;;22.80;12.25;;;2.20;99.90;;;;;;5037521;28;20267;-91
2021/01/05 06:22:55;;;;;;;20.38;12.70;;;2.20;99.90;;;;;;5040361;28;20239;-91
2021/01/05 06:25:24;;;;;;;24.70;13.30;;;2.20;99.90;;;;;;5058112;28;20213;-89
2021/01/05 06:27:51;;;;;;;21.38;12.63;;;2.30;99.90;;;;;;5057133;28;20199;-88
2021/01/05 06:30:18;;;;;;;20.02;12.20;;;2.30;99.90;;;;;;5058361;28;20218;-88
2021/01/05 06:32:46;;;;;;;25.73;12.10;;;2.30;99.90;;;;;;5052097;28;20203;-88
2021/01/05 06:35:15;;;;;;;26.73;12.65;;;2.40;99.90;;;;;;5046804;28;20643;-90
2021/01/05 06:37:42;;;;;;;22.92;12.43;;;2.30;99.90;;;;;;5043589;28;20285;-90
2021/01/05 06:40:10;;;;;;;18.48;13.23;;;2.20;99.90;;;;;;5039702;28;20299;-90
2021/01/05 06:42:37;;;;;;;28.60;15.27;;;2.20;99.90;;;;;;5036827;28;20285;-91
2021/01/05 06:45:04;;;;;;;19.50;13.07;;;2.20;99.90;;;;;;5035378;28;20684;-90
2021/01/05 06:47:30;;;;;;;19.25;12.00;;;2.20;99.90;;;;;;5037194;28;20785;-91
2021/01/05 06:49:58;;;;;;;28.40;15.98;;;2.20;99.90;;;;;;5037098;28;20622;-88
2021/01/05 06:52:24;;;;;;;22.40;12.95;;;2.20;99.90;;;;;;5035036;28;20216;-90
2021/01/05 06:54:51;;;;;;;23.45;14.18;;;2.30;99.90;;;;;;5034838;28;20254;-89
2021/01/05 06:57:18;;;;;;;27.52;14.55;;;2.30;99.90;;;;;;5036482;28;20227;-91
2021/01/05 06:59:45;;;;;;;24.63;14.77;;;2.40;99.90;;;;;;5034917;28;20243;-89
2021/01/05 07:02:15;;;;;;;23.50;13.98;;;2.40;99.90;;;;;;5034596;28;20313;-91
2021/01/05 07:04:44;;;;;;;21.80;13.15;;;2.50;99.90;;;;;;5036095;28;20265;-91
2021/01/05 07:07:13;;;;;;;23.67;13.40;;;2.40;99.90;;;;;;5035650;28;20294;-90
2021/01/05 07:09:41;;;;;;;24.58;14.23;;;2.40;99.90;;;;;;5035045;28;20294;-87
2021/01/05 07:12:08;;;;;;;20.05;12.02;;;2.50;99.90;;;;;;5036128;28;20206;-91
2021/01/05 07:14:34;;;;;;;23.05;11.63;;;2.50;99.90;;;;;;5033910;28;20734;-92
2021/01/05 07:17:01;;;;;;;23.30;13.77;;;2.50;99.90;;;;;;5034815;28;20241;-92
2021/01/05 07:19:27;;;;;;;22.55;12.40;;;2.60;99.90;;;;;;5034489;28;20235;-91
2021/01/05 07:21:53;;;;;;;23.92;13.65;;;2.60;99.90;;;;;;5035089;28;20270;-87
2021/01/05 07:24:21;;;;;;;25.85;13.45;;;2.40;99.90;;;;;;5035112;28;20270;-89
2021/01/05 07:26:49;;;;;;;24.30;13.20;;;2.50;99.90;;;;;;5034620;28;20293;-92
2021/01/05 07:29:18;;;;;;;24.95;13.10;;;2.60;99.90;;;;;;5034058;28;20566;-90
2021/01/05 07:31:44;;;;;;;23.27;14.05;;;2.60;99.90;;;;;;5036125;28;20325;-87
2021/01/05 07:34:11;;;;;;;17.67;11.20;;;2.50;99.90;;;;;;5034784;28;20270;-90
2021/01/05 07:36:40;;;;;;;27.58;15.75;;;2.50;99.90;;;;;;5034570;28;20231;-89
2021/01/05 07:39:18;;;;;;;22.45;13.00;;;2.50;99.90;;;;;;5034420;28;20246;-89
2021/01/05 07:41:45;;;;;;;20.73;12.30;;;2.50;99.90;;;;;;5034578;28;20298;-90
2021/01/05 07:44:11;;;;;;;40.50;21.50;;;2.50;99.90;;;;;;5033178;28;20676;-92
2021/01/05 07:46:38;;;;;;;26.35;15.73;;;2.50;99.90;;;;;;5034759;28;20289;-90
2021/01/05 07:49:04;;;;;;;26.58;13.98;;;2.50;99.90;;;;;;5035027;28;20294;-92
2021/01/05 07:51:30;;;;;;;24.85;13.25;;;2.40;99.90;;;;;;5034257;28;20294;-93
2021/01/05 07:53:57;;;;;;;24.45;14.15;;;2.40;99.90;;;;;;5033906;28;20309;-85
2021/01/05 07:56:23;;;;;;;23.90;15.52;;;2.40;99.90;;;;;;5033473;28;20628;-86
2021/01/05 07:58:51;;;;;;;24.17;13.65;;;2.40;99.90;;;;;;5033564;28;20257;-87
2021/01/05 08:01:17;;;;;;;28.45;14.73;;;2.40;99.90;;;;;;5034837;28;20347;-89
2021/01/05 08:03:43;;;;;;;25.58;13.02;;;2.40;99.90;;;;;;5034151;28;20211;-89
2021/01/05 08:06:11;;;;;;;23.88;13.55;;;2.40;99.90;;;;;;5033585;28;20293;-89
2021/01/05 08:08:40;;;;;;;16.25;11.35;;;2.40;99.90;;;;;;5033684;28;20293;-80
2021/01/05 08:11:06;;;;;;;22.25;13.20;;;2.50;99.90;;;;;;5033715;28;20294;-89
2021/01/05 08:13:32;;;;;;;22.65;12.95;;;2.60;99.90;;;;;;5034269;28;20298;-88
2021/01/05 08:16:00;;;;;;;25.60;13.65;;;2.70;99.90;;;;;;5033937;28;20277;-88
2021/01/05 08:18:27;;;;;;;25.70;15.60;;;2.60;99.90;;;;;;5033631;28;20234;-85
2021/01/05 08:20:53;;;;;;;20.52;12.50;;;2.60;99.90;;;;;;5033564;28;20610;-87
2021/01/05 08:23:20;;;;;;;22.55;13.70;;;2.60;99.90;;;;;;5033776;28;20293;-87
2021/01/05 08:25:46;;;;;;;23.73;13.85;;;2.60;99.90;;;;;;5033552;28;20302;-88
2021/01/05 08:28:12;;;;;;;30.42;15.93;;;2.70;99.90;;;;;;5032631;28;20206;-89
2021/01/05 08:30:40;;;;;;;24.83;14.05;;;2.70;99.90;;;;;;5034750;28;20298;-90
2021/01/05 08:33:13;;;;;;;19.67;13.05;;;2.50;99.90;;;;;;5034777;28;20261;-90
2021/01/05 08:35:40;;;;;;;27.00;12.93;;;2.50;99.90;;;;;;5033943;28;20218;-90
2021/01/05 08:38:06;;;;;;;20.70;12.90;;;2.60;99.90;;;;;;5034194;28;20234;-90
2021/01/05 08:40:34;;;;;;;28.40;13.65;;;2.60;99.90;;;;;;5036375;28;20591;-90
2021/01/05 08:43:03;;;;;;;24.77;13.00;;;2.60;99.90;;;;;;5038750;28;20313;-91
2021/01/05 08:45:29;;;;;;;18.40;12.32;;;2.70;99.90;;;;;;5038751;28;20282;-91
2021/01/05 08:48:00;;;;;;;22.40;12.45;;;2.70;99.90;;;;;;5037921;28;20618;-88
2021/01/05 08:50:31;;;;;;;26.65;14.43;;;2.90;99.90;;;;;;5037747;28;20278;-87
2021/01/05 08:53:01;;;;;;;21.92;12.30;;;2.90;99.90;;;;;;5037818;28;20202;-91
2021/01/05 08:55:30;;;;;;;21.33;13.88;;;3.00;99.90;;;;;;5038736;28;20237;-89
2021/01/05 08:57:59;;;;;;;16.90;12.00;;;2.90;99.90;;;;;;4975857;28;20239;-90
2021/01/05 09:00:26;;;;;;;22.40;12.75;;;2.70;99.90;;;;;;4977041;28;20236;-89
2021/01/05 09:02:53;;;;;;;18.35;13.85;;;2.80;99.90;;;;;;4976552;28;20708;-88
2021/01/05 09:05:21;;;;;;;22.95;12.80;;;2.90;99.90;;;;;;4976433;28;20240;-89
2021/01/05 09:07:50;;;;;;;17.08;12.32;;;3.00;99.90;;;;;;4976643;28;20256;-93
2021/01/05 09:10:26;;;;;;;23.00;13.30;;;3.00;99.90;;;;;;4976919;28;20209;-90
2021/01/05 09:12:54;;;;;;;22.17;12.90;;;3.00;99.90;;;;;;4975830;28;20259;-89
2021/01/05 09:15:23;;;;;;;27.92;13.38;;;3.00;99.90;;;;;;4990290;28;20617;-89
2021/01/05 09:17:51;;;;;;;17.63;12.10;;;3.10;99.90;;;;;;5036949;28;20694;-85
2021/01/05 09:20:21;;;;;;;23.48;13.25;;;3.20;99.90;;;;;;5036816;28;20210;-87
2021/01/05 09:22:49;;;;;;;21.83;12.48;;;3.10;99.90;;;;;;5036809;28;20203;-88
2021/01/05 09:25:16;;;;;;;23.38;13.52;;;3.30;99.90;;;;;;5036553;28;20202;-91
2021/01/05 09:27:44;;;;;;;23.40;15.40;;;3.10;99.90;;;;;;5036879;28;20752;-80
2021/01/05 09:30:14;;;;;;;20.70;11.55;;;3.00;99.90;;;;;;5036446;28;20297;-87
2021/01/05 09:32:40;;;;;;;16.95;11.18;;;3.10;99.90;;;;;;5036828;28;20293;-88
2021/01/05 09:35:08;;;;;;;17.60;12.57;;;3.20;99.90;;;;;;5036924;28;20297;-87
2021/01/05 09:37:43;;;;;;;24.40;11.68;;;3.30;99.90;;;;;;5036623;28;20329;-89
2021/01/05 09:40:12;;;;;;;22.85;12.93;;;3.20;99.90;;;;;;5037530;28;20670;-88
2021/01/05 09:42:38;;;;;;;20.75;13.27;;;3.30;99.90;;;;;;5036796;28;20289;-86
2021/01/05 09:45:06;;;;;;;22.90;14.70;;;3.40;99.90;;;;;;5035257;28;20286;-87
2021/01/05 09:47:32;;;;;;;26.90;16.27;;;3.30;99.90;;;;;;5036219;28;20245;-85
2021/01/05 09:49:59;;;;;;;25.90;15.90;;;3.40;99.90;;;;;;5036346;28;20304;-86
2021/01/05 09:52:25;;;;;;;26.20;14.60;;;3.50;99.90;;;;;;5036205;28;20240;-90
2021/01/05 09:54:52;;;;;;;25.52;13.00;;;3.30;99.90;;;;;;5036778;28;20286;-90
2021/01/05 09:57:19;;;;;;;17.55;12.02;;;3.20;99.90;;;;;;5037134;28;20238;-92
2021/01/05 09:59:46;;;;;;;17.98;11.18;;;3.30;99.90;;;;;;5035889;28;20679;-85
2021/01/05 10:02:13;;;;;;;22.80;12.45;;;3.30;99.90;;;;;;5037041;28;20325;-88
2021/01/05 10:04:40;;;;;;;16.90;11.65;;;3.40;99.90;;;;;;5039336;28;20202;-91
2021/01/05 10:07:07;;;;;;;27.70;15.13;;;3.40;99.90;;;;;;5037052;28;20294;-89
2021/01/05 10:09:36;;;;;;;23.63;13.02;;;3.30;99.90;;;;;;5036975;28;20293;-90
2021/01/05 10:12:03;;;;;;;23.42;12.95;;;3.20;99.90;;;;;;5025554;28;20223;-89
2021/01/05 10:14:31;;;;;;;17.23;12.82;;;3.10;99.90;;;;;;5015175;28;20213;-92
2021/01/05 10:16:58;;;;;;;19.25;11.43;;;3.20;99.90;;;;;;5017017;28;20777;-90
2021/01/05 10:19:25;;;;;;;23.42;14.80;;;3.50;99.90;;;;;;5015807;28;20638;-88
2021/01/05 10:21:51;;;;;;;20.30;12.90;;;3.20;99.90;;;;;;5015554;28;20296;-89
2021/01/05 10:24:18;;;;;;;20.65;11.35;;;3.30;99.90;;;;;;5015895;28;20200;-93
2021/01/05 10:26:51;;;;;;;16.42;10.88;;;3.30;99.90;;;;;;5016691;28;20212;-92
2021/01/05 10:29:18;;;;;;;19.50;12.13;;;3.10;99.90;;;;;;5015240;28;20298;-88
2021/01/05 10:31:46;;;;;;;18.58;11.68;;;3.10;99.90;;;;;;5016631;28;20610;-89
2021/01/05 10:34:15;;;;;;;17.30;11.77;;;3.30;99.90;;;;;;5015561;28;20734;-91
2021/01/05 10:36:44;;;;;;;16.33;13.07;;;3.40;99.90;;;;;;5016234;28;20258;-92
2021/01/05 10:39:14;;;;;;;19.10;10.82;;;3.40;99.90;;;;;;5023361;28;20298;-88
2021/01/05 10:41:43;;;;;;;18.92;11.50;;;3.40;99.90;;;;;;5036421;28;20297;-90
2021/01/05 10:44:11;;;;;;;19.15;12.60;;;3.50;99.90;;;;;;5035730;28;20240;-89
2021/01/05 10:46:37;;;;;;;19.48;11.48;;;3.70;99.90;;;;;;5038746;28;20637;-86
2021/01/05 10:49:04;;;;;;;17.40;12.30;;;3.50;99.90;;;;;;5037336;28;20227;-87
2021/01/05 10:51:31;;;;;;;29.30;13.52;;;3.50;99.90;;;;;;5039594;28;20225;-92
2021/01/05 10:53:57;;;;;;;17.60;10.77;;;3.40;99.90;;;;;;5038131;28;20258;-85
2021/01/05 10:56:24;;;;;;;18.98;11.88;;;3.50;99.90;;;;;;5040349;28;20716;-88
2021/01/05 10:58:51;;;;;;;22.17;13.13;;;3.70;99.90;;;;;;5034086;28;20229;-90
2021/01/05 11:01:19;;;;;;;20.90;14.55;;;3.80;99.90;;;;;;5034879;28;20239;-85
2021/01/05 11:10:30;;;;;;;22.58;13.88;;;3.70;99.90;;;;;;5017415;28;20422;-83
2021/01/05 11:12:59;;;;;;;19.95;14.30;;;3.50;99.90;;;;;;5014388;28;20245;-88
2021/01/05 11:15:41;;;;;;;23.83;14.30;;;3.50;99.90;;;;;;5015723;28;20230;-88
2021/01/05 11:18:07;;;;;;;23.42;15.15;;;3.60;99.90;;;;;;5015522;28;20358;-90
2021/01/05 11:20:34;;;;;;;22.35;12.77;;;3.60;99.90;;;;;;5016208;28;20298;-91
2021/01/05 11:23:03;;;;;;;18.10;11.73;;;3.80;99.90;;;;;;5016450;28;20323;-92
2021/01/05 11:25:31;;;;;;;22.40;12.85;;;3.90;99.90;;;;;;5024628;28;20204;-88
2021/01/05 11:27:58;;;;;;;22.10;12.65;;;3.90;99.90;;;;;;5029860;28;20238;-88
2021/01/05 11:30:25;;;;;;;20.63;13.98;;;4.00;99.90;;;;;;5030998;28;20204;-88
2021/01/05 11:32:51;;;;;;;26.42;14.38;;;4.00;99.90;;;;;;5022556;28;20298;-90
2021/01/05 11:35:21;;;;;;;21.67;12.38;;;3.90;99.90;;;;;;5019733;28;20211;-88
2021/01/05 11:38:03;;;;;;;18.80;12.70;;;3.90;99.90;;;;;;5018853;28;20601;-88
2021/01/05 11:40:29;;;;;;;21.70;11.27;;;3.90;99.90;;;;;;5032922;28;20213;-93
2021/01/05 11:42:56;;;;;;;18.00;12.20;;;4.00;99.90;;;;;;5034715;28;20290;-93
2021/01/05 11:45:22;;;;;;;23.88;12.38;;;4.00;99.90;;;;;;5036862;28;20685;-90
2021/01/05 11:47:50;;;;;;;21.52;11.98;;;4.00;99.90;;;;;;5022282;28;20734;-89
2021/01/05 11:50:16;;;;;;;20.88;13.02;;;4.00;99.90;;;;;;5015562;28;20203;-93
2021/01/05 11:52:43;;;;;;;20.38;11.98;;;3.90;99.90;;;;;;5015270;28;20203;-90
2021/01/05 11:55:11;;;;;;;22.67;13.32;;;3.80;99.90;;;;;;5014569;28;20195;-91
2021/01/05 11:57:38;;;;;;;17.88;12.35;;;3.90;99.90;;;;;;5015221;28;20307;-92
2021/01/05 12:00:09;;;;;;;22.20;13.50;;;4.00;99.90;;;;;;5013768;28;20299;-91
2021/01/05 12:02:35;;;;;;;18.75;11.90;;;4.00;99.90;;;;;;5017567;28;20306;-91
2021/01/05 12:05:01;;;;;;;16.38;10.65;;;4.00;99.90;;;;;;5017701;28;20249;-92
2021/01/05 12:07:28;;;;;;;18.92;11.05;;;4.10;99.90;;;;;;5014830;28;20196;-92
2021/01/05 12:09:54;;;;;;;17.08;10.73;;;3.90;99.90;;;;;;5018002;28;20638;-92
2021/01/05 12:12:21;;;;;;;18.95;11.73;;;4.00;99.90;;;;;;5014653;28;20298;-92
2021/01/05 12:14:48;;;;;;;21.58;13.93;;;4.00;99.90;;;;;;5012887;28;20207;-91
2021/01/05 12:17:16;;;;;;;17.90;11.73;;;3.90;99.90;;;;;;5014010;28;20250;-89
2021/01/05 12:19:43;;;;;;;19.50;12.70;;;4.00;99.90;;;;;;5013796;28;20532;-92
2021/01/05 12:22:11;;;;;;;17.52;11.50;;;4.00;99.90;;;;;;5014146;28;20199;-91
2021/01/05 12:24:38;;;;;;;19.25;13.05;;;4.00;99.90;;;;;;5014174;28;20552;-91
2021/01/05 12:27:06;;;;;;;22.30;10.35;;;4.00;99.90;;;;;;5013158;28;20203;-89
2021/01/05 12:29:34;;;;;;;16.98;11.15;;;4.00;99.90;;;;;;5012811;28;20202;-89
2021/01/05 12:32:03;;;;;;;18.33;11.15;;;4.00;99.90;;;;;;5013007;28;20210;-89
2021/01/05 12:34:33;;;;;;;14.88;11.68;;;4.00;99.90;;;;;;5013395;28;20203;-91
2021/01/05 12:37:01;;;;;;;16.30;12.00;;;4.00;99.90;;;;;;5013944;28;20228;-91
2021/01/05 12:39:31;;;;;;;21.67;10.73;;;4.00;99.90;;;;;;5014528;28;20699;-88
2021/01/05 12:41:58;;;;;;;20.60;12.70;;;3.90;99.90;;;;;;5011083;28;20204;-87
2021/01/05 12:44:27;;;;;;;24.58;11.90;;;3.90;99.90;;;;;;5012718;28;20200;-88
2021/01/05 12:46:55;;;;;;;19.10;12.27;;;3.90;99.90;;;;;;5013529;28;20196;-91
2021/01/05 12:49:22;;;;;;;19.17;11.25;;;4.00;99.90;;;;;;5012961;28;20200;-93
2021/01/05 12:51:50;;;;;;;18.77;12.10;;;4.00;99.90;;;;;;5015830;28;20650;-89
2021/01/05 12:54:20;;;;;;;17.23;12.80;;;4.00;99.90;;;;;;5011776;28;20199;-93
2021/01/05 12:56:47;;;;;;;21.50;12.02;;;4.00;99.90;;;;;;5012935;28;20774;-89
2021/01/05 12:59:15;;;;;;;20.65;10.20;;;3.90;99.90;;;;;;5013024;28;20290;-91
2021/01/05 13:01:41;;;;;;;18.50;11.88;;;3.80;99.90;;;;;;5013358;28;20234;-92